createdAt,value
2017-11-04T00:02:34.933Z,94715.00
2017-11-04T00:17:36.529Z,94703.20
2017-11-04T00:32:36.324Z,94711.06
2017-11-04T00:47:39.325Z,94709.13
2017-11-04T01:02:34.697Z,94714.06
2017-11-04T01:17:36.811Z,94728.70
2017-11-04T01:32:34.646Z,94732.53
2017-11-04T01:47:34.639Z,94741.74
2017-11-04T02:02:34.498Z,94765.83
2017-11-04T02:17:34.946Z,94774.64
2017-11-04T02:32:34.925Z,94782.68
2017-11-04T02:47:36.860Z,94776.91
2017-11-04T03:02:34.775Z,94790.63
2017-11-04T03:17:34.261Z,94799.56
2017-11-04T03:32:34.119Z,94799.70
2017-11-04T03:47:36.983Z,94805.63
2017-11-04T04:02:34.913Z,94815.22
2017-11-04T04:17:36.424Z,94819.41
2017-11-04T04:32:34.372Z,94828.19
2017-11-04T04:47:35.820Z,94844.98
2017-11-04T05:02:34.226Z,94850.07
2017-11-04T05:17:36.174Z,94868.09
2017-11-04T05:32:36.098Z,94880.02
2017-11-04T05:47:34.606Z,94910.23
2017-11-04T06:02:34.481Z,94930.47
2017-11-04T06:17:34.935Z,94949.86
2017-11-04T06:32:36.957Z,94958.34
2017-11-04T06:47:34.906Z,94972.23
2017-11-04T07:02:37.889Z,94970.25
2017-11-04T07:17:35.518Z,94970.50
2017-11-04T07:32:40.212Z,94979.92
2017-11-04T07:47:35.017Z,94996.91
2017-11-04T08:02:34.908Z,95002.36
2017-11-04T08:17:35.713Z,95018.98
2017-11-04T08:32:38.546Z,95029.63
2017-11-04T08:47:36.345Z,95037.28
2017-11-04T09:02:36.297Z,95031.48
2017-11-04T09:17:36.700Z,95025.31
2017-11-04T09:32:35.661Z,95005.20
2017-11-04T09:47:36.495Z,94980.92
2017-11-04T10:02:34.514Z,94971.72
2017-11-04T10:17:35.085Z,94969.48
2017-11-04T10:32:34.958Z,94950.75
2017-11-04T10:47:37.922Z,94955.64
2017-11-04T11:02:38.212Z,94941.11
2017-11-04T11:17:34.212Z,94940.89
2017-11-04T11:32:37.156Z,94935.56
2017-11-04T11:47:45.505Z,94932.04
2017-11-04T12:17:36.479Z,94936.30
2017-11-04T12:32:36.358Z,94947.28
2017-11-04T12:47:33.938Z,94954.58
2017-11-04T13:02:34.558Z,94957.39
2017-11-04T13:17:37.863Z,94957.80
2017-11-04T13:32:38.980Z,94958.33
2017-11-04T13:47:34.562Z,94953.81
2017-11-04T14:02:33.284Z,94947.73
2017-11-04T14:17:37.498Z,94955.56
2017-11-04T14:32:34.859Z,94963.74
2017-11-04T14:47:34.920Z,94967.89
2017-11-04T15:02:35.630Z,94963.11
2017-11-04T15:17:34.179Z,94966.34
2017-11-04T15:32:35.005Z,94982.22
2017-11-04T15:47:34.955Z,95015.74
2017-11-04T16:02:36.850Z,95020.70
2017-11-04T16:17:36.521Z,95053.67
2017-11-04T16:32:34.418Z,95064.37
2017-11-04T16:47:36.288Z,95076.36
2017-11-04T17:02:36.247Z,95087.92
2017-11-04T17:17:37.698Z,95086.09
2017-11-04T17:32:36.281Z,95092.97
2017-11-04T17:47:36.515Z,95097.06
2017-11-04T18:02:34.461Z,95115.39
2017-11-04T18:17:34.297Z,95126.36
2017-11-04T18:32:34.257Z,95143.64
2017-11-04T18:47:33.704Z,95154.13
2017-11-04T19:02:35.067Z,95155.83
2017-11-04T19:17:34.204Z,95149.92
2017-11-04T19:20:01.737Z,95155.04
2017-11-04T19:22:29.328Z,95154.94
2017-11-04T19:24:56.890Z,95156.36
